Lehmann Sound — V2EM3 — position and weather

sailwx.info

Track history (hours):
 
Tides and Currents Weather Stations Pressure Air Temp Water Temp Dewpoint Dewpoint Depression Visibility Wind Speed Wind Dir Waves Ship Positions

Lehmann Sound

Last reported at 2014-Oct-24 12:33 UTC. Time now 2014-Oct-25 23:30 UTC.
Position N 66°16' E 012°22'.

Length 90 m; draft 5.8 m.

Type: Cargo ship. MMSI: 305476000.

Date/timePositionNaut miles runAvg speedWind from/ knotsBaromVisibWave heightAir tempDewpointWater temp
2014-Oct-24 12:33N 66°16' E 012°22'11 9.3
2014-Oct-24 11:22N 66°11' E 012°47'  
2014-Oct-20 10:33N 66°12' E 012°46'8 8.0
2014-Oct-20 09:33N 66°15' E 012°28'  
2014-Oct-18 00:33N 58°26' E 005°13'15610.2
2014-Oct-17 09:19N 57°49' E 009°59'810.9
2014-Oct-17 08:33N 57°49' E 010°14'1211.6
2014-Oct-17 07:33N 57°49' E 010°36'8 8.1
2014-Oct-17 06:34N 57°43' E 010°46'5 5.4
2014-Oct-17 05:33N 57°42' E 010°35'3 1.3
2014-Oct-17 03:33N 57°41' E 010°40'9 8.7
2014-Oct-17 02:33N 57°37' E 010°54'13 9.0
2014-Oct-17 01:04N 57°31' E 011°16'4 8.3
2014-Oct-17 00:33N 57°30' E 011°24'9 8.6
2014-Oct-16 23:33N 57°22' E 011°30'29 9.7
2014-Oct-16 20:33N 56°55' E 011°48'1010.0
2014-Oct-16 19:32N 56°45' E 011°54'10 9.9
2014-Oct-16 18:33N 56°36' E 011°58'9 9.3
2014-Oct-16 17:33N 56°27' E 012°02'9 9.3
2014-Oct-16 16:33N 56°18' E 012°06'10 9.7
2014-Oct-16 15:33N 56°12' E 012°21'1111.3
2014-Oct-16 14:33N 56°05' E 012°37'1010.3
2014-Oct-16 13:33N 55°56' E 012°44'10 9.9
2014-Oct-16 12:33N 55°46' E 012°42'1111.0
2014-Oct-16 11:33N 55°35' E 012°42'10 9.8
2014-Oct-16 10:33N 55°25' E 012°42'8 8.3
2014-Oct-16 09:33N 55°17' E 012°47'9 9.4
2014-Oct-16 08:33N 55°16' E 013°03'10 9.5
2014-Oct-16 07:30N 55°15' E 013°21'29 9.8
2014-Oct-16 04:30N 55°14' E 014°12'9 8.7
2014-Oct-16 03:29N 55°20' E 014°24'9 9.5
2014-Oct-16 02:33N 55°27' E 014°34'9 9.2
2014-Oct-16 01:33N 55°31' E 014°48'8 0.2
2014-Oct-14 17:31N 55°30' E 015°01'19 9.5
2014-Oct-14 15:29N 55°19' E 014°33'10 9.3
2014-Oct-14 14:22N 55°11' E 014°21'  
Track history (hours):
 
Tides and Currents Weather Stations Pressure Air Temp Water Temp Dewpoint Dewpoint Depression Visibility Wind Speed Wind Dir Waves Ship Positions

Lehmann Sound

Last reported at 2014-Oct-24 12:33 UTC. Time now 2014-Oct-25 23:30 UTC.
Position N 66°16' E 012°22'.

Length 90 m; draft 5.8 m.

Type: Cargo ship. MMSI: 305476000.

Date/timePositionNaut miles runAvg speedWind from/ knotsBaromVisibWave heightAir tempDewpointWater temp
2014-Oct-24 12:33N 66°16' E 012°22'11 9.3
2014-Oct-24 11:22N 66°11' E 012°47'  
2014-Oct-20 10:33N 66°12' E 012°46'8 8.0
2014-Oct-20 09:33N 66°15' E 012°28'  
2014-Oct-18 00:33N 58°26' E 005°13'15610.2
2014-Oct-17 09:19N 57°49' E 009°59'810.9
2014-Oct-17 08:33N 57°49' E 010°14'1211.6
2014-Oct-17 07:33N 57°49' E 010°36'8 8.1
2014-Oct-17 06:34N 57°43' E 010°46'5 5.4
2014-Oct-17 05:33N 57°42' E 010°35'3 1.3
2014-Oct-17 03:33N 57°41' E 010°40'9 8.7
2014-Oct-17 02:33N 57°37' E 010°54'13 9.0
2014-Oct-17 01:04N 57°31' E 011°16'4 8.3
2014-Oct-17 00:33N 57°30' E 011°24'9 8.6
2014-Oct-16 23:33N 57°22' E 011°30'29 9.7
2014-Oct-16 20:33N 56°55' E 011°48'1010.0
2014-Oct-16 19:32N 56°45' E 011°54'10 9.9
2014-Oct-16 18:33N 56°36' E 011°58'9 9.3
2014-Oct-16 17:33N 56°27' E 012°02'9 9.3
2014-Oct-16 16:33N 56°18' E 012°06'10 9.7
2014-Oct-16 15:33N 56°12' E 012°21'1111.3
2014-Oct-16 14:33N 56°05' E 012°37'1010.3
2014-Oct-16 13:33N 55°56' E 012°44'10 9.9
2014-Oct-16 12:33N 55°46' E 012°42'1111.0
2014-Oct-16 11:33N 55°35' E 012°42'10 9.8
2014-Oct-16 10:33N 55°25' E 012°42'8 8.3
2014-Oct-16 09:33N 55°17' E 012°47'9 9.4
2014-Oct-16 08:33N 55°16' E 013°03'10 9.5
2014-Oct-16 07:30N 55°15' E 013°21'29 9.8
2014-Oct-16 04:30N 55°14' E 014°12'9 8.7
2014-Oct-16 03:29N 55°20' E 014°24'9 9.5
2014-Oct-16 02:33N 55°27' E 014°34'9 9.2
2014-Oct-16 01:33N 55°31' E 014°48'8 0.2
2014-Oct-14 17:31N 55°30' E 015°01'19 9.5
2014-Oct-14 15:29N 55°19' E 014°33'10 9.3
2014-Oct-14 14:22N 55°11' E 014°21'  

Dump ship's entire track history